Time;durP1;ratioP1;P1;durP2;ratioP2;P2;SDS_P1;SDS_P2;PMS_P1;PMS_P2;Temp;Humidity;BMP_temperature;BMP_pressure;BME280_temperature;BME280_humidity;BME280_pressure;Samples;Min_cycle;Max_cycle;Signal;HPM_P1;HPM_P2
2022/07/26 06:33:54;;;;;;;9.60;2.30;;;;;;;26.08;52.01;100331.31;4965360;23;20474;-61
2022/07/26 06:36:20;;;;;;;5.40;2.53;;;;;;;26.42;53.48;100338.75;4971763;28;20508;-62
2022/07/26 06:38:46;;;;;;;9.40;2.90;;;;;;;26.33;51.28;100329.75;4990206;28;20929;-62
2022/07/26 06:41:12;;;;;;;6.87;1.80;;;;;;;25.67;50.62;100337.13;4989961;28;20495;-62
2022/07/26 06:43:39;;;;;;;7.83;1.90;;;;;;;25.37;52.56;100344.84;4997849;28;20189;-62
2022/07/26 06:46:04;;;;;;;4.73;1.47;;;;;;;25.89;52.67;100341.44;4984870;28;20204;-62
2022/07/26 06:48:30;;;;;;;3.07;1.40;;;;;;;25.93;53.14;100339.34;4970848;28;20512;-62
2022/07/26 06:50:55;;;;;;;5.73;1.57;;;;;;;25.82;50.98;100344.41;4975494;28;20178;-62
2022/07/26 06:53:20;;;;;;;3.40;1.23;;;;;;;25.47;52.94;100335.25;4970446;28;20214;-62
2022/07/26 06:55:46;;;;;;;4.60;1.27;;;;;;;25.63;52.45;100341.28;4971244;28;20174;-62
2022/07/26 06:58:11;;;;;;;5.17;1.40;;;;;;;25.85;51.05;100340.63;4987902;28;20186;-62
2022/07/26 07:00:37;;;;;;;3.47;1.13;;;;;;;26.08;51.74;100346.63;4988031;28;20181;-62
2022/07/26 07:03:02;;;;;;;5.77;1.90;;;;;;;25.83;50.32;100339.44;4988476;28;20517;-62
2022/07/26 07:05:28;;;;;;;3.03;1.20;;;;;;;25.95;51.00;100342.63;4999221;28;20181;-62
2022/07/26 07:07:53;;;;;;;3.30;1.20;;;;;;;25.84;51.13;100336.13;5008230;28;20177;-63
2022/07/26 07:10:18;;;;;;;4.17;1.40;;;;;;;25.62;51.04;100334.72;5008485;28;20174;-62
2022/07/26 07:12:44;;;;;;;6.60;1.47;;;;;;;25.70;50.27;100336.25;5009379;28;20579;-62
2022/07/26 07:15:10;;;;;;;4.50;1.37;;;;;;;25.82;49.65;100337.78;4974473;28;20175;-62
2022/07/26 07:17:36;;;;;;;5.10;1.30;;;;;;;25.97;49.80;100345.94;4989948;28;20202;-62
2022/07/26 07:20:03;;;;;;;6.03;1.50;;;;;;;25.71;50.10;100340.81;4979869;28;20436;-63
2022/07/26 07:22:29;;;;;;;6.37;1.50;;;;;;;25.72;50.09;100339.56;4981521;28;20186;-62
2022/07/26 07:24:54;;;;;;;3.60;1.20;;;;;;;25.74;48.97;100339.94;4979957;28;20437;-62
2022/07/26 07:27:19;;;;;;;2.03;1.20;;;;;;;25.81;49.66;100341.94;4993449;28;20173;-62
2022/07/26 07:29:45;;;;;;;4.20;1.53;;;;;;;25.24;50.23;100335.06;4992274;28;20224;-62
2022/07/26 07:32:10;;;;;;;5.87;1.20;;;;;;;25.65;49.82;100339.63;4980235;28;20185;-62
2022/07/26 07:34:36;;;;;;;3.20;0.97;;;;;;;25.66;48.65;100340.44;4997233;28;20228;-62
2022/07/26 07:37:03;;;;;;;3.70;1.53;;;;;;;25.57;49.12;100338.06;4996255;28;20202;-62
2022/07/26 07:39:28;;;;;;;2.60;1.10;;;;;;;25.68;49.50;100343.72;4988461;28;20668;-62
2022/07/26 07:41:54;;;;;;;3.87;1.40;;;;;;;25.70;48.70;100342.03;4987801;28;20432;-62
2022/07/26 07:44:19;;;;;;;18.60;1.57;;;;;;;25.76;48.61;100334.56;4976499;28;20175;-62
2022/07/26 07:46:45;;;;;;;3.20;1.00;;;;;;;24.70;47.83;100344.53;4973694;28;20602;-62
2022/07/26 07:49:10;;;;;;;4.57;1.00;;;;;;;24.35;49.59;100341.78;4970918;28;20190;-62
2022/07/26 07:51:35;;;;;;;5.77;1.33;;;;;;;25.20;48.57;100334.25;4972472;28;20178;-62
2022/07/26 07:54:01;;;;;;;2.20;1.00;;;;;;;25.47;48.15;100332.38;4972443;28;20171;-62
2022/07/26 07:56:26;;;;;;;3.17;1.10;;;;;;;25.66;47.54;100332.59;4977971;28;20197;-62
2022/07/26 07:58:52;;;;;;;4.13;1.20;;;;;;;25.71;48.47;100337.94;4978800;28;20191;-62
2022/07/26 08:01:17;;;;;;;2.47;1.20;;;;;;;25.76;48.10;100328.78;4979519;28;20190;-62
2022/07/26 08:03:43;;;;;;;6.10;1.10;;;;;;;25.83;48.17;100339.44;4988268;28;20196;-62
2022/07/26 08:06:08;;;;;;;6.13;1.40;;;;;;;25.96;48.57;100340.56;4976602;28;20186;-62
2022/07/26 08:08:34;;;;;;;4.20;1.17;;;;;;;25.44;48.92;100342.72;4971900;28;20241;-62
2022/07/26 08:11:00;;;;;;;5.60;1.30;;;;;;;25.68;48.39;100335.03;4972047;28;20179;-62
2022/07/26 08:13:25;;;;;;;2.83;0.90;;;;;;;25.71;47.71;100337.09;4972805;28;20439;-62
2022/07/26 08:15:52;;;;;;;2.40;1.10;;;;;;;25.61;48.02;100335.97;4991849;28;20648;-62
2022/07/26 08:18:18;;;;;;;5.90;1.43;;;;;;;25.54;47.51;100333.13;4991125;28;20257;-62
2022/07/26 08:20:43;;;;;;;4.00;1.33;;;;;;;25.73;47.45;100331.69;4985302;28;20932;-62
2022/07/26 08:23:09;;;;;;;3.77;1.27;;;;;;;25.80;47.26;100337.41;4991700;28;20524;-62
2022/07/26 08:25:34;;;;;;;8.00;1.60;;;;;;;25.84;47.76;100336.13;4991291;28;20633;-62
2022/07/26 08:27:59;;;;;;;4.23;1.17;;;;;;;25.76;49.40;100337.47;4988088;28;20194;-61
2022/07/26 08:30:25;;;;;;;5.27;1.53;;;;;;;25.86;47.86;100338.59;4988031;28;20177;-61
2022/07/26 08:32:51;;;;;;;3.37;1.20;;;;;;;25.96;48.33;100332.72;4991175;28;20853;-62
2022/07/26 08:35:16;;;;;;;5.53;1.17;;;;;;;25.92;47.90;100331.09;4994830;28;20218;-62
2022/07/26 08:37:42;;;;;;;3.63;1.40;;;;;;;25.89;47.75;100329.06;4989207;28;20252;-62
2022/07/26 08:40:07;;;;;;;5.17;1.40;;;;;;;25.68;46.50;100330.09;4989766;28;20239;-62
2022/07/26 08:42:32;;;;;;;6.17;1.20;;;;;;;25.86;47.83;100327.00;4991034;28;20178;-62
2022/07/26 08:44:58;;;;;;;2.87;1.27;;;;;;;25.69;47.45;100328.03;4990756;28;20643;-62
2022/07/26 08:47:23;;;;;;;4.37;1.07;;;;;;;25.76;46.91;100327.94;4990772;28;20221;-62
2022/07/26 08:49:49;;;;;;;2.33;0.90;;;;;;;25.64;47.14;100335.09;4989410;28;20207;-61
2022/07/26 08:52:14;;;;;;;4.30;1.20;;;;;;;25.89;47.47;100331.94;4991216;28;20228;-62
2022/07/26 08:54:49;;;;;;;3.57;1.00;;;;;;;25.92;47.09;100328.22;4992060;28;20182;-62
2022/07/26 08:57:15;;;;;;;3.67;1.10;;;;;;;25.99;47.25;100331.84;4991923;28;20233;-62
2022/07/26 08:59:40;;;;;;;3.30;1.10;;;;;;;25.99;46.84;100326.06;4991615;28;20534;-62
2022/07/26 09:02:09;;;;;;;3.70;1.30;;;;;;;26.01;46.93;100329.34;4990326;28;20328;-62
2022/07/26 09:04:36;;;;;;;5.67;1.53;;;;;;;26.03;46.95;100323.94;4995974;28;20178;-62
2022/07/26 09:07:15;;;;;;;3.77;1.00;;;;;;;25.92;47.01;100329.03;5011361;28;20420;-62
2022/07/26 09:10:11;;;;;;;2.80;1.20;;;;;;;25.89;46.93;100335.66;5010842;28;20422;-62
2022/07/26 09:12:37;;;;;;;4.27;1.30;;;;;;;25.79;45.41;100333.69;4994618;28;20444;-62
2022/07/26 09:15:03;;;;;;;3.87;1.30;;;;;;;25.80;46.08;100335.31;5002417;28;20456;-62
2022/07/26 09:17:43;;;;;;;5.10;1.33;;;;;;;25.91;46.01;100341.00;4991170;28;20244;-61
2022/07/26 09:20:11;;;;;;;3.40;1.20;;;;;;;25.78;44.95;100334.94;4958088;28;20432;-61
2022/07/26 09:22:38;;;;;;;10.40;1.20;;;;;;;25.88;46.09;100344.75;4972157;28;20418;-61
2022/07/26 09:25:19;;;;;;;2.30;0.90;;;;;;;25.96;45.20;100337.69;4954468;28;20472;-61
2022/07/26 09:27:45;;;;;;;3.03;1.10;;;;;;;26.01;45.51;100335.13;4968481;28;20409;-62
2022/07/26 09:30:11;;;;;;;2.53;0.90;;;;;;;25.95;45.11;100331.06;4990470;28;20832;-62
2022/07/26 09:32:36;;;;;;;9.57;1.90;;;;;;;25.88;43.75;100334.00;4990227;28;20196;-62
2022/07/26 09:35:15;;;;;;;2.77;1.20;;;;;;;25.96;44.65;100338.50;4998054;28;20833;-62
2022/07/26 09:37:45;;;;;;;3.40;1.57;;;;;;;25.99;44.63;100336.81;5009757;28;20189;-61
2022/07/26 09:40:12;;;;;;;2.23;1.00;;;;;;;25.99;44.28;100334.72;5005687;28;20443;-61
2022/07/26 09:42:38;;;;;;;5.23;1.40;;;;;;;26.05;44.59;100335.91;4973388;28;20962;-61
2022/07/26 09:45:14;;;;;;;3.37;1.50;;;;;;;26.04;43.97;100353.72;4938076;28;20418;-62
2022/07/26 09:47:39;;;;;;;4.70;1.20;;;;;;;25.95;44.02;100342.63;4971295;28;20173;-62
2022/07/26 09:50:25;;;;;;;3.70;0.93;;;;;;;26.04;44.62;100345.03;4973273;28;20426;-61
2022/07/26 09:53:01;;;;;;;3.33;0.97;;;;;;;26.08;44.78;100343.72;4971809;28;20178;-62
2022/07/26 09:55:27;;;;;;;3.10;1.23;;;;;;;26.06;44.68;100345.41;4971433;28;20501;-62
2022/07/26 09:57:52;;;;;;;3.30;1.20;;;;;;;25.92;44.68;100354.25;4971783;28;20489;-62
2022/07/26 10:00:18;;;;;;;2.50;1.10;;;;;;;25.93;44.58;100333.56;4973156;28;20181;-62
2022/07/26 10:02:43;;;;;;;3.33;1.17;;;;;;;26.03;44.55;100346.25;4971270;28;20650;-62
2022/07/26 10:05:09;;;;;;;4.03;1.30;;;;;;;26.05;44.32;100341.69;4989107;28;20212;-62
2022/07/26 10:07:34;;;;;;;2.57;1.30;;;;;;;26.09;43.98;100345.38;5010565;28;20181;-62
2022/07/26 10:10:03;;;;;;;3.47;1.27;;;;;;;25.98;43.20;100349.63;4991682;28;20264;-61
2022/07/26 10:12:30;;;;;;;3.10;1.20;;;;;;;26.05;44.02;100346.66;4985166;28;20181;-62
2022/07/26 10:14:56;;;;;;;5.47;1.10;;;;;;;26.10;44.55;100349.91;4989756;28;20424;-62
2022/07/26 10:17:27;;;;;;;2.47;1.00;;;;;;;25.96;43.24;100344.28;4990713;28;20459;-62
2022/07/26 10:19:56;;;;;;;3.10;1.03;;;;;;;26.03;43.51;100343.38;4989994;28;20177;-62
2022/07/26 10:22:21;;;;;;;2.67;0.93;;;;;;;25.97;43.66;100342.19;4954364;28;20516;-61
2022/07/26 10:24:46;;;;;;;3.60;1.00;;;;;;;26.07;44.56;100336.31;4971135;28;21002;-61
2022/07/26 10:27:37;;;;;;;4.27;1.73;;;;;;;26.03;43.54;100338.41;4978979;28;20636;-61
2022/07/26 10:30:17;;;;;;;3.60;1.30;;;;;;;26.04;44.14;100336.34;4989664;28;20173;-61
2022/07/26 10:32:53;;;;;;;2.33;1.17;;;;;;;26.10;44.50;100338.31;4990543;28;20853;-62
2022/07/26 10:35:35;;;;;;;2.90;0.83;;;;;;;25.99;43.54;100328.94;4984110;28;20479;-62
2022/07/26 10:38:04;;;;;;;2.10;1.17;;;;;;;26.07;43.98;100339.19;5009547;28;20499;-61
2022/07/26 10:40:29;;;;;;;3.07;1.03;;;;;;;26.05;42.93;100341.69;5009398;28;20420;-62
2022/07/26 10:43:11;;;;;;;2.80;1.10;;;;;;;26.07;43.52;100341.25;5009962;28;20427;-62
2022/07/26 10:45:36;;;;;;;2.57;1.03;;;;;;;26.13;43.59;100339.53;5009272;28;20195;-62
2022/07/26 10:48:18;;;;;;;2.30;1.07;;;;;;;26.00;43.14;100338.47;4990705;28;20420;-61
2022/07/26 10:50:45;;;;;;;3.00;0.90;;;;;;;26.07;43.56;100327.63;4990536;28;20165;-62
2022/07/26 10:53:25;;;;;;;3.63;1.17;;;;;;;26.09;43.89;100333.78;5008501;28;20416;-62
2022/07/26 10:55:51;;;;;;;2.70;1.10;;;;;;;26.08;43.56;100331.31;5008396;28;20473;-62
2022/07/26 10:58:17;;;;;;;3.87;1.23;;;;;;;26.16;43.65;100333.72;5004233;28;20962;-62
2022/07/26 11:01:02;;;;;;;4.20;1.27;;;;;;;26.03;42.45;100343.38;4991111;28;20475;-62
2022/07/26 11:03:38;;;;;;;2.87;1.20;;;;;;;25.97;42.93;100328.56;4994202;28;20178;-62
2022/07/26 11:06:09;;;;;;;2.03;1.07;;;;;;;26.09;43.83;100333.78;4979409;28;20420;-62
2022/07/26 11:08:35;;;;;;;4.50;1.10;;;;;;;26.10;43.53;100331.72;4993723;28;20424;-62
2022/07/26 11:11:00;;;;;;;3.87;1.10;;;;;;;26.12;43.47;100329.22;4993276;28;20420;-62
2022/07/26 11:13:27;;;;;;;3.10;1.13;;;;;;;26.05;43.16;100320.63;4976128;28;20179;-62
2022/07/26 11:16:00;;;;;;;2.00;0.97;;;;;;;26.07;43.68;100327.63;4974422;28;20544;-61
2022/07/26 11:18:31;;;;;;;4.87;1.23;;;;;;;26.11;43.26;100319.72;4974363;28;20433;-61
2022/07/26 11:20:59;;;;;;;2.80;1.23;;;;;;;26.18;43.44;100316.72;4973943;28;20974;-62
2022/07/26 11:23:27;;;;;;;2.80;1.27;;;;;;;26.11;42.89;100310.22;4957010;28;20473;-62
2022/07/26 11:26:02;;;;;;;2.60;1.00;;;;;;;26.16;43.65;100310.56;4974172;28;20413;-62
2022/07/26 11:28:28;;;;;;;2.97;0.97;;;;;;;26.22;43.17;100308.81;4992401;28;20420;-61
2022/07/26 11:30:57;;;;;;;3.63;1.00;;;;;;;26.25;43.58;100305.03;4975846;28;20412;-62
2022/07/26 11:33:36;;;;;;;4.90;1.43;;;;;;;26.28;43.18;100307.09;4993844;28;20166;-61
2022/07/26 11:36:02;;;;;;;2.80;1.20;;;;;;;26.28;42.89;100312.88;5008049;28;20482;-61
2022/07/26 11:38:50;;;;;;;1.80;1.00;;;;;;;26.24;42.79;100303.41;5011972;28;21098;-61
2022/07/26 11:41:20;;;;;;;2.77;1.20;;;;;;;26.30;43.30;100301.66;4993097;28;20409;-62
2022/07/26 11:43:45;;;;;;;1.80;0.90;;;;;;;26.31;41.84;100303.34;4972915;28;20448;-62
2022/07/26 11:46:10;;;;;;;4.27;1.10;;;;;;;26.34;42.99;100299.56;4972882;28;20422;-62
2022/07/26 11:48:37;;;;;;;8.63;1.13;;;;;;;26.35;42.56;100309.06;4955825;28;20207;-62
2022/07/26 11:51:19;;;;;;;3.70;1.40;;;;;;;26.35;42.39;100306.97;4975747;28;20182;-62
2022/07/26 11:53:44;;;;;;;2.43;1.10;;;;;;;26.32;41.74;100296.28;4975831;28;20453;-62
2022/07/26 11:56:15;;;;;;;4.47;1.20;;;;;;;26.35;42.28;100286.72;4972323;28;20480;-62
2022/07/26 11:58:42;;;;;;;1.90;0.97;;;;;;;26.37;42.34;100304.47;4972650;28;20927;-61
2022/07/26 12:01:08;;;;;;;2.40;1.03;;;;;;;26.36;40.01;100291.28;4972634;28;20476;-62
2022/07/26 12:03:36;;;;;;;3.33;1.23;;;;;;;26.36;42.03;100294.16;4972960;28;20813;-62
2022/07/26 12:06:07;;;;;;;2.33;1.00;;;;;;;26.34;41.55;100290.88;4988741;28;20264;-62
2022/07/26 12:09:01;;;;;;;2.90;1.00;;;;;;;26.37;41.35;100281.31;4991809;28;20475;-61
2022/07/26 12:11:36;;;;;;;1.87;0.97;;;;;;;26.42;40.98;100283.72;4991267;28;20464;-62
2022/07/26 12:14:01;;;;;;;3.07;1.10;;;;;;;26.45;40.10;100290.72;4992838;28;20408;-62
2022/07/26 12:16:40;;;;;;;2.50;0.90;;;;;;;26.42;41.89;100289.53;4992214;28;21018;-62
2022/07/26 12:19:08;;;;;;;2.20;1.07;;;;;;;26.42;41.21;100292.41;4976309;28;20209;-61
2022/07/26 12:21:49;;;;;;;6.00;1.17;;;;;;;26.36;41.17;100287.53;4992693;28;20915;-61
2022/07/26 12:25:03;;;;;;;2.40;0.90;;;;;;;26.42;41.12;100291.59;4992356;28;20932;-62
2022/07/26 12:27:29;;;;;;;3.03;1.00;;;;;;;26.40;41.88;100286.22;4981289;28;20512;-62
2022/07/26 12:29:58;;;;;;;3.70;1.03;;;;;;;26.37;41.43;100281.31;4992417;28;20413;-62
2022/07/26 12:32:31;;;;;;;2.40;1.17;;;;;;;26.38;41.20;100285.03;4992431;28;20930;-62
2022/07/26 12:34:58;;;;;;;2.80;1.20;;;;;;;26.38;41.82;100280.06;4999365;28;20463;-62
2022/07/26 12:37:23;;;;;;;1.77;0.90;;;;;;;26.43;41.54;100275.84;5012057;28;21307;-61
2022/07/26 12:39:59;;;;;;;2.40;1.10;;;;;;;26.45;41.32;100284.94;5011280;28;20424;-61
2022/07/26 12:42:30;;;;;;;2.23;0.90;;;;;;;26.45;41.80;100279.94;5012073;28;20247;-61
2022/07/26 12:44:56;;;;;;;2.00;0.90;;;;;;;26.45;41.90;100268.38;5011700;28;20919;-62
2022/07/26 12:47:22;;;;;;;5.47;0.87;;;;;;;26.47;41.68;100271.66;5011632;28;20973;-61
2022/07/26 12:49:47;;;;;;;2.60;0.90;;;;;;;26.50;41.14;100273.66;5011426;28;20416;-62
2022/07/26 12:52:14;;;;;;;3.77;1.10;;;;;;;26.53;41.29;100261.22;4993452;28;20181;-61
2022/07/26 12:54:40;;;;;;;2.53;0.80;;;;;;;26.53;39.72;100260.41;5011474;28;20173;-61
2022/07/26 12:57:05;;;;;;;3.47;1.10;;;;;;;26.56;40.90;100262.47;5011441;28;20455;-61
2022/07/26 12:59:31;;;;;;;2.83;1.07;;;;;;;26.57;41.21;100262.03;5011324;28;20412;-62
2022/07/26 13:01:56;;;;;;;3.13;1.40;;;;;;;26.54;40.97;100265.75;5011260;28;20185;-62
2022/07/26 13:04:21;;;;;;;6.53;1.17;;;;;;;26.48;40.91;100261.72;4977476;28;20174;-62
2022/07/26 13:06:47;;;;;;;3.70;1.47;;;;;;;26.45;40.85;100262.56;4991272;28;20179;-62
2022/07/26 13:09:12;;;;;;;3.90;1.03;;;;;;;26.47;40.90;100262.97;4977687;28;20166;-61
2022/07/26 13:11:38;;;;;;;2.47;1.20;;;;;;;26.48;40.74;100255.09;4992190;28;20182;-61
2022/07/26 13:14:03;;;;;;;2.07;0.93;;;;;;;26.52;41.73;100252.97;4991670;28;20169;-62
2022/07/26 13:16:29;;;;;;;2.27;1.20;;;;;;;26.53;40.91;100251.72;4991564;28;20201;-61
2022/07/26 13:18:54;;;;;;;2.57;1.00;;;;;;;26.48;41.32;100250.13;4991151;28;20679;-61
2022/07/26 13:21:19;;;;;;;2.30;1.00;;;;;;;26.49;41.34;100245.97;4991436;28;20182;-62
2022/07/26 13:23:45;;;;;;;2.20;0.90;;;;;;;26.54;41.64;100231.00;4990952;28;20661;-62
2022/07/26 13:26:10;;;;;;;3.40;1.10;;;;;;;26.61;41.07;100235.91;4991470;28;20240;-62
2022/07/26 13:28:36;;;;;;;3.70;1.10;;;;;;;26.64;40.74;100232.16;4971966;28;20280;-61
2022/07/26 13:31:01;;;;;;;2.00;1.00;;;;;;;26.61;40.80;100235.91;4971420;28;20237;-62
2022/07/26 13:33:27;;;;;;;2.03;0.83;;;;;;;26.64;40.82;100232.16;4971616;28;20197;-62
2022/07/26 13:35:52;;;;;;;3.33;1.30;;;;;;;26.67;39.76;100223.38;5001543;28;20225;-62
2022/07/26 13:38:19;;;;;;;2.10;1.00;;;;;;;26.63;40.81;100231.31;5010618;28;20236;-61
2022/07/26 13:40:44;;;;;;;2.67;1.10;;;;;;;26.68;40.20;100221.28;4999924;28;20197;-61
2022/07/26 13:43:09;;;;;;;6.23;1.07;;;;;;;26.73;41.22;100226.59;4971543;28;20425;-61
2022/07/26 13:45:35;;;;;;;2.83;1.23;;;;;;;26.75;40.02;100227.00;4972066;28;20519;-62
2022/07/26 13:48:00;;;;;;;2.10;1.00;;;;;;;26.76;40.45;100229.47;4973088;28;20197;-61
2022/07/26 13:50:26;;;;;;;9.33;1.50;;;;;;;26.76;40.44;100225.72;4971095;28;20189;-62
2022/07/26 13:52:53;;;;;;;4.50;0.90;;;;;;;26.73;40.01;100221.63;4971807;28;20681;-62
2022/07/26 13:55:19;;;;;;;5.37;1.63;;;;;;;26.66;38.52;100218.84;4971240;28;20421;-61
2022/07/26 13:57:45;;;;;;;2.10;1.10;;;;;;;26.63;39.40;100211.03;4971394;28;20508;-62
2022/07/26 14:00:11;;;;;;;2.00;0.80;;;;;;;26.53;38.99;100212.00;4972615;28;20186;-62
2022/07/26 14:02:36;;;;;;;1.80;0.73;;;;;;;26.60;39.50;100211.91;4970085;28;20336;-61
2022/07/26 14:05:01;;;;;;;3.57;1.13;;;;;;;26.61;40.15;100212.72;4986399;28;21158;-61
2022/07/26 14:07:27;;;;;;;2.20;1.00;;;;;;;26.60;39.77;100217.69;5009347;28;20205;-62
2022/07/26 14:09:52;;;;;;;3.27;1.10;;;;;;;26.67;39.64;100216.75;5009349;28;20268;-62
2022/07/26 14:12:18;;;;;;;2.27;0.83;;;;;;;26.71;39.67;100223.31;5009147;28;20813;-62
2022/07/26 14:14:43;;;;;;;4.20;1.20;;;;;;;26.76;39.48;100220.75;5006364;28;20184;-62
2022/07/26 14:17:10;;;;;;;2.07;0.93;;;;;;;26.79;39.42;100214.06;4990044;28;20272;-61
2022/07/26 14:19:35;;;;;;;6.80;1.10;;;;;;;26.79;38.93;100216.97;4990005;28;20428;-62
2022/07/26 14:22:01;;;;;;;2.27;0.83;;;;;;;26.75;39.21;100212.50;4990501;28;20656;-62
2022/07/26 14:24:27;;;;;;;2.07;1.13;;;;;;;26.71;40.13;100215.47;4990267;28;20256;-62
2022/07/26 14:26:52;;;;;;;4.63;1.30;;;;;;;26.71;39.17;100211.75;4987213;28;20193;-62
2022/07/26 14:29:18;;;;;;;3.40;1.00;;;;;;;26.75;39.12;100219.09;4990258;28;20920;-62
2022/07/26 14:31:43;;;;;;;3.87;1.20;;;;;;;26.79;39.83;100213.28;4989980;28;20204;-62
2022/07/26 14:34:09;;;;;;;2.50;1.20;;;;;;;26.78;39.07;100205.81;4990396;28;20204;-62
2022/07/26 14:36:35;;;;;;;3.57;1.13;;;;;;;26.85;39.69;100215.19;4991608;28;20198;-62
2022/07/26 14:39:00;;;;;;;2.93;0.90;;;;;;;26.86;38.63;100202.38;4989726;28;20190;-62
2022/07/26 14:41:25;;;;;;;2.83;1.20;;;;;;;26.88;38.82;100208.53;4990496;28;20631;-62
2022/07/26 14:43:51;;;;;;;2.23;1.00;;;;;;;26.87;39.34;100198.22;4990693;28;20540;-62
2022/07/26 14:46:16;;;;;;;4.57;1.20;;;;;;;26.90;38.61;100197.31;4990309;28;20170;-62
2022/07/26 14:48:42;;;;;;;4.60;1.47;;;;;;;26.91;39.17;100209.75;4989907;28;20184;-62
2022/07/26 14:51:08;;;;;;;3.97;0.97;;;;;;;26.90;39.73;100200.22;4989725;28;20174;-61
2022/07/26 14:53:34;;;;;;;2.27;0.90;;;;;;;26.92;38.66;100206.41;4988616;28;20664;-61
2022/07/26 14:55:59;;;;;;;3.23;1.17;;;;;;;26.85;38.71;100200.72;4990342;28;20443;-61
2022/07/26 14:58:24;;;;;;;4.60;1.07;;;;;;;26.84;37.72;100207.78;4989285;28;20205;-61
2022/07/26 15:00:51;;;;;;;2.10;0.87;;;;;;;26.82;39.00;100212.38;4988441;28;20190;-61
2022/07/26 15:03:16;;;;;;;3.37;1.03;;;;;;;26.85;38.97;100206.50;4988332;28;20200;-62
2022/07/26 15:05:42;;;;;;;2.80;0.90;;;;;;;26.89;38.60;100201.47;4988614;28;20912;-62
2022/07/26 15:08:07;;;;;;;3.00;1.13;;;;;;;26.91;38.85;100196.09;4988938;28;20229;-62
2022/07/26 15:10:33;;;;;;;3.13;1.00;;;;;;;26.93;38.27;100199.34;4988789;28;20196;-62
2022/07/26 15:12:59;;;;;;;1.90;1.07;;;;;;;26.93;38.11;100198.50;4990138;28;20645;-62
2022/07/26 15:15:25;;;;;;;3.03;1.00;;;;;;;26.97;39.47;100190.59;4989881;28;20174;-61
2022/07/26 15:17:51;;;;;;;2.10;0.87;;;;;;;26.96;38.61;100191.84;4990041;28;20822;-61
2022/07/26 15:20:16;;;;;;;1.70;0.80;;;;;;;26.94;38.24;100180.69;4989641;28;20178;-62
2022/07/26 15:22:42;;;;;;;2.03;1.00;;;;;;;26.95;38.84;100181.53;4990059;28;20186;-62
2022/07/26 15:25:07;;;;;;;4.13;0.90;;;;;;;26.94;39.71;100186.50;4988348;28;20177;-62
2022/07/26 15:27:33;;;;;;;2.27;1.17;;;;;;;27.03;39.17;100183.84;4989852;28;20185;-62
2022/07/26 15:29:58;;;;;;;3.50;1.10;;;;;;;27.04;38.94;100187.56;4989081;28;20186;-62
2022/07/26 15:32:24;;;;;;;2.90;1.00;;;;;;;27.07;37.09;100184.59;4989900;28;20177;-61
2022/07/26 15:34:49;;;;;;;2.57;1.30;;;;;;;27.01;37.10;100182.66;4995887;28;20750;-62
2022/07/26 15:37:15;;;;;;;2.40;1.03;;;;;;;27.02;38.46;100176.41;5009092;28;20205;-62
2022/07/26 15:39:40;;;;;;;2.73;1.10;;;;;;;27.10;37.84;100172.09;5008678;28;20223;-62
2022/07/26 15:42:06;;;;;;;2.83;0.90;;;;;;;27.07;38.02;100167.22;5009521;28;20177;-61
2022/07/26 15:44:31;;;;;;;2.50;1.07;;;;;;;27.03;38.69;100172.25;4985015;28;20201;-62
2022/07/26 15:46:57;;;;;;;2.93;1.03;;;;;;;27.13;38.45;100162.53;4970725;28;20174;-62
2022/07/26 15:49:22;;;;;;;3.97;1.10;;;;;;;27.15;38.66;100174.50;4972184;28;20258;-62
2022/07/26 15:51:48;;;;;;;2.50;1.00;;;;;;;27.13;38.66;100170.41;4972607;28;20187;-62
2022/07/26 15:54:15;;;;;;;2.80;1.30;;;;;;;27.17;38.33;100166.22;4972264;28;20186;-62
2022/07/26 15:56:40;;;;;;;1.73;0.90;;;;;;;27.14;38.92;100172.88;4974408;28;20477;-62
2022/07/26 15:59:06;;;;;;;1.73;0.90;;;;;;;27.21;38.40;100166.97;4972484;28;20467;-62
2022/07/26 16:01:32;;;;;;;3.43;1.13;;;;;;;27.21;38.71;100166.97;4973196;28;20245;-62
2022/07/26 16:03:57;;;;;;;2.73;1.00;;;;;;;27.10;37.56;100163.41;4973460;28;20182;-61
2022/07/26 16:06:23;;;;;;;4.93;1.20;;;;;;;27.04;39.63;100156.50;5011835;28;20600;-61
2022/07/26 16:08:48;;;;;;;2.73;1.27;;;;;;;27.10;39.65;100160.50;5012066;28;20558;-61
2022/07/26 16:11:13;;;;;;;4.47;1.10;;;;;;;27.13;39.25;100153.84;4998245;28;20596;-61
2022/07/26 16:13:39;;;;;;;2.60;0.90;;;;;;;27.18;39.45;100152.53;4992820;28;20177;-62
2022/07/26 16:16:05;;;;;;;6.73;0.90;;;;;;;27.24;39.53;100147.88;4992333;28;20232;-62
2022/07/26 16:18:30;;;;;;;3.40;1.00;;;;;;;27.20;39.71;100150.81;4992735;28;20214;-62
2022/07/26 16:20:56;;;;;;;3.03;1.00;;;;;;;27.24;38.75;100151.59;4992387;28;20284;-62
2022/07/26 16:23:21;;;;;;;3.67;1.00;;;;;;;27.17;39.78;100145.94;4992925;28;20177;-61
2022/07/26 16:25:46;;;;;;;3.23;0.90;;;;;;;27.17;39.44;100142.16;4991674;28;20189;-61
2022/07/26 16:28:12;;;;;;;3.17;1.00;;;;;;;27.15;40.07;100139.72;4990715;28;20840;-62
2022/07/26 16:30:39;;;;;;;4.23;1.20;;;;;;;27.11;38.48;100143.94;4990440;28;20174;-62
2022/07/26 16:33:04;;;;;;;2.83;1.17;;;;;;;27.16;39.01;100143.44;4957875;28;20641;-61
2022/07/26 16:35:29;;;;;;;3.03;0.97;;;;;;;27.19;39.30;100139.69;5002464;28;20476;-61
2022/07/26 16:37:55;;;;;;;2.83;1.43;;;;;;;27.22;39.65;100144.59;5010585;28;20193;-61
2022/07/26 16:40:20;;;;;;;4.80;1.20;;;;;;;27.25;39.44;100135.00;4992949;28;20177;-60
2022/07/26 16:42:46;;;;;;;3.30;0.90;;;;;;;27.27;39.33;100149.88;5011790;28;20267;-60
2022/07/26 16:45:11;;;;;;;5.93;1.13;;;;;;;27.23;38.72;100138.34;5011421;28;20185;-60
2022/07/26 16:47:37;;;;;;;4.50;0.93;;;;;;;27.19;38.68;100137.59;5011907;28;20838;-61
2022/07/26 16:50:03;;;;;;;3.43;1.10;;;;;;;27.14;39.03;100146.78;5010815;28;20181;-61
2022/07/26 16:52:28;;;;;;;4.03;1.17;;;;;;;27.14;38.36;100145.97;4992123;28;20185;-60
2022/07/26 16:54:54;;;;;;;2.07;1.00;;;;;;;27.19;38.73;100143.41;5009514;28;20455;-60
2022/07/26 16:57:19;;;;;;;3.30;1.10;;;;;;;27.19;38.47;100139.69;5008866;28;20204;-61
2022/07/26 16:59:45;;;;;;;5.80;1.20;;;;;;;27.14;39.54;100140.19;5008871;28;20587;-60
2022/07/26 17:02:11;;;;;;;3.30;1.03;;;;;;;27.12;40.02;100139.78;4998705;28;20190;-61
2022/07/26 17:04:36;;;;;;;2.57;0.87;;;;;;;27.11;39.36;100135.25;4995592;28;20189;-60
2022/07/26 17:07:02;;;;;;;2.97;1.10;;;;;;;27.11;39.39;100139.00;5007518;28;20435;-61
2022/07/26 17:09:27;;;;;;;2.57;1.13;;;;;;;27.10;40.08;100137.31;4991066;28;20181;-60
2022/07/26 17:11:52;;;;;;;2.30;1.10;;;;;;;27.20;39.13;100129.72;4990207;28;20185;-60
2022/07/26 17:14:19;;;;;;;1.67;0.80;;;;;;;27.19;39.08;100140.50;4972515;28;20803;-60
2022/07/26 17:16:45;;;;;;;5.33;1.80;;;;;;;27.13;39.08;100136.44;4971764;28;20206;-61
2022/07/26 17:19:11;;;;;;;2.10;0.97;;;;;;;27.10;39.69;100140.22;4954578;28;20484;-60
2022/07/26 17:21:36;;;;;;;3.70;1.27;;;;;;;27.07;39.85;100138.22;4971964;28;20788;-61
2022/07/26 17:24:02;;;;;;;5.10;0.93;;;;;;;27.05;40.01;100129.13;4971933;28;20821;-61
2022/07/26 17:26:29;;;;;;;2.70;1.10;;;;;;;26.97;39.48;100135.53;4974254;28;20190;-61
2022/07/26 17:28:54;;;;;;;2.70;1.00;;;;;;;26.94;39.87;100140.13;4990726;28;20641;-60
2022/07/26 17:31:20;;;;;;;1.80;0.90;;;;;;;26.96;40.98;100137.63;4991153;28;20622;-60
2022/07/26 17:33:45;;;;;;;3.73;1.10;;;;;;;26.97;41.02;100127.66;4991175;28;20185;-60
2022/07/26 17:36:25;;;;;;;2.00;1.00;;;;;;;27.03;40.80;100131.69;5008357;28;20317;-61
2022/07/26 17:38:51;;;;;;;4.50;1.00;;;;;;;27.03;41.26;100136.63;4966908;28;20325;-60
2022/07/26 17:41:17;;;;;;;3.53;0.90;;;;;;;27.03;41.26;100128.78;4973700;28;20426;-60
2022/07/26 17:43:42;;;;;;;3.00;1.10;;;;;;;27.05;40.74;100134.13;4971683;28;20177;-60
2022/07/26 17:46:07;;;;;;;3.33;1.10;;;;;;;27.07;40.57;100135.34;4971449;28;20174;-60
2022/07/26 17:48:33;;;;;;;4.43;1.30;;;;;;;27.00;40.70;100132.56;4971699;28;20178;-60
2022/07/26 17:50:58;;;;;;;3.07;1.20;;;;;;;27.03;40.83;100134.56;4970967;28;20183;-61
2022/07/26 17:53:24;;;;;;;3.17;1.10;;;;;;;27.04;40.80;100133.31;4974251;28;20214;-61
2022/07/26 17:55:49;;;;;;;4.00;1.30;;;;;;;27.02;40.84;100140.81;4971370;28;20186;-61
2022/07/26 17:58:15;;;;;;;2.70;1.40;;;;;;;27.01;41.44;100139.19;4971288;28;20270;-60